Latest Weather Observations for Casino

IDN60801

Issued at 10:02 am EST Wednesday 24 May 2017 (issued every 30 minutes, with the page automatically refreshed every 10 minutes)

About weather observations | Map of weather stations | Latest weather observations for NSW | Other Formats
Station Details ID: 058208 Name: CASINO AIRPORT AWS Lat: -28.88 Lon: 153.06 Height: 20.9 m
Data from the previous 72 hours. | See also: Recent months at Casino
Date/Time
EST
Temp
°C
App
Temp
°C
Dew
Point
°C
Rel
Hum
%
Delta-T
°C
Wind Press
QNH
hPa
Press
MSL
hPa
Rain since
9am
mm
Dir  Spd
km/h
Gust
km/h
Spd
kts
Gust
kts
24/10:00am 21.6 21.4 16.6 73 3.0 WNW 13 19 7 10 1019.2 1019.1 0.0
24/09:30am 20.5 20.1 16.3 77 2.5 NNW 13 19 7 10 1019.1 1019.0 0.0
24/09:00am 18.9 18.7 15.6 81 1.9 N 11 13 6 7 1019.4 1019.3 0.0
24/08:30am 16.1 15.9 14.8 92 0.7 SW 9 13 5 7 1020.3 1020.2 0.0
24/08:00am 15.1 15.1 14.1 94 0.6 SW 7 11 4 6 1020.0 1019.9 0.0
24/07:30am 14.1 13.9 13.1 94 0.6 W 6 7 3 4 1019.4 1019.3 0.0
24/07:00am 13.2 12.6 12.3 94 0.5 W 7 9 4 5 1019.0 1018.9 0.0
24/06:30am 12.9 12.2 12.0 94 0.5 W 7 9 4 5 1018.6 1018.5 0.0
24/06:00am 13.3 12.9 12.4 94 0.5 WNW 6 7 3 4 1018.6 1018.5 0.0
24/05:30am 13.3 12.7 12.4 94 0.5 NNW 7 7 4 4 1018.3 1018.2 0.0
24/05:00am 13.3 12.7 12.4 94 0.5 NW 7 9 4 5 1018.2 1018.1 0.0
24/04:30am 13.4 12.9 12.5 94 0.5 NW 7 11 4 6 1018.1 1018.0 0.0
24/04:00am 13.5 13.2 12.6 94 0.5 WNW 6 7 3 4 1018.0 1017.9 0.0
24/03:30am 13.7 12.9 12.8 94 0.5 W 9 11 5 6 1018.2 1018.1 0.0
24/03:00am 14.0 13.6 13.1 94 0.5 W 7 9 4 5 1018.4 1018.3 0.0
24/02:30am 14.3 14.2 13.3 94 0.6 WNW 6 9 3 5 1018.4 1018.3 0.0
24/02:00am 15.0 14.6 14.0 94 0.6 NW 9 11 5 6 1018.7 1018.6 0.0
24/01:30am 14.6 15.0 13.6 94 0.6 WNW 4 9 2 5 1019.0 1018.9 0.0
24/01:00am 13.7 14.5 12.6 93 0.6 CALM 0 0 0 0 1019.1 1019.0 0.0
24/12:30am 14.4 14.3 13.3 93 0.6 WSW 6 7 3 4 1019.6 1019.5 0.0
24/12:00am 14.6 14.6 13.5 93 0.6 W 6 9 3 5 1019.8 1019.7 0.0
 
Date/Time
EST
Temp
°C
App
Temp
°C
Dew
Point
°C
Rel
Hum
%
Delta-T
°C
Wind Press
QNH
hPa
Press
MSL
hPa
Rain since
9am
mm
Dir  Spd
km/h
Gust
km/h
Spd
kts
Gust
kts
23/11:30pm 14.9 14.7 13.6 92 0.7 NNW 7 9 4 5 1019.8 1019.7 0.0
23/11:00pm 15.0 14.8 13.5 91 0.8 N 7 9 4 5 1020.1 1020.0 0.0
23/10:30pm 15.5 16.0 14.0 91 0.8 WNW 4 7 2 4 1020.4 1020.3 0.0
23/10:00pm 16.2 16.7 15.1 93 0.6 WSW 6 9 3 5 1020.6 1020.5 0.0
23/09:30pm 16.3 17.9 15.0 92 0.8 CALM 0 0 0 0 1020.7 1020.6 0.0
23/09:00pm 16.7 17.4 15.6 93 0.6 SSW 6 7 3 4 1020.7 1020.6 0.0
23/08:30pm 16.2 16.7 14.9 92 0.7 S 6 7 3 4 1020.7 1020.6 0.0
23/08:00pm 16.1 16.4 14.5 90 0.9 SSE 6 7 3 4 1020.6 1020.5 0.0
23/07:30pm 16.5 17.0 14.9 90 0.9 SSE 6 7 3 4 1020.5 1020.4 0.0
23/07:00pm 16.9 17.2 15.1 89 1.0 ESE 7 9 4 5 1020.1 1020.0 0.0
23/06:30pm 17.2 16.8 15.2 88 1.2 ESE 11 13 6 7 1019.9 1019.8 0.0
23/06:00pm 17.4 16.6 15.0 86 1.4 ESE 13 13 7 7 1019.4 1019.3 0.0
23/05:30pm 18.1 17.6 15.0 82 1.8 ESE 11 13 6 7 1019.1 1019.0 0.0
23/05:00pm 19.5 19.3 14.7 74 2.8 ESE 9 11 5 6 1018.7 1018.6 0.0
23/04:30pm 21.2 21.0 14.8 67 3.8 ESE 9 11 5 6 1018.5 1018.4 0.0
23/04:00pm 23.6 23.5 14.9 58 5.2 ESE 9 13 5 7 1018.4 1018.3 0.0
23/03:30pm 24.1 23.8 14.5 55 5.7 ESE 9 11 5 6 1018.4 1018.3 0.0
23/03:00pm 24.5 24.0 14.9 55 5.7 E 11 15 6 8 1018.3 1018.2 0.0
23/02:30pm 24.4 24.5 15.6 58 5.3 SE 9 15 5 8 1018.4 1018.3 0.0
23/02:00pm 24.4 24.9 15.6 58 5.3 SE 7 11 4 6 1018.6 1018.5 0.0
23/01:30pm 24.6 25.3 15.5 57 5.5 E 6 9 3 5 1018.9 1018.8 0.0
23/01:00pm 23.0 23.4 14.8 60 4.9 SE 6 9 3 5 1019.5 1019.4 0.0
23/12:30pm 24.3 24.5 15.8 59 5.2 SE 9 11 5 6 1020.0 1019.9 0.0
23/12:00pm 24.0 25.2 16.0 61 4.8 SSW 4 7 2 4 1020.5 1020.4 0.0
23/11:30am 21.6 22.0 15.4 68 3.7 SW 7 9 4 5 1021.1 1021.0 0.0
23/11:00am 22.4 23.3 16.2 68 3.7 SSW 6 11 3 6 1021.6 1021.5 0.0
23/10:30am 21.9 22.9 16.8 73 3.1 S 7 9 4 5 1022.0 1021.9 0.0
23/10:00am 19.9 21.3 16.5 81 2.0 SW 4 7 2 4 1022.5 1022.4 0.0
23/09:30am 19.6 20.9 17.0 85 1.6 WNW 6 9 3 5 1022.9 1022.8 0.0
23/09:00am 18.6 19.4 16.4 87 1.3 NW 7 9 4 5 1022.8 1022.7 0.0
23/08:30am 18.1 18.7 16.8 92 0.8 NNW 9 11 5 6 1022.7 1022.6 0.0
23/08:00am 17.6 18.1 16.6 94 0.6 NW 9 13 5 7 1022.7 1022.6 0.0
23/07:30am 16.8 17.6 15.8 94 0.6 NW 6 7 3 4 1022.6 1022.5 0.0
23/07:00am 16.1 16.6 15.1 94 0.6 NW 6 11 3 6 1022.3 1022.2 0.0
23/06:30am 15.7 15.9 14.7 94 0.6 W 7 9 4 5 1021.8 1021.7 0.0
23/06:00am 15.8 15.6 14.8 94 0.6 WNW 9 13 5 7 1021.6 1021.5 0.0
23/05:30am 15.8 17.0 14.8 94 0.6 W 2 6 1 3 1021.3 1021.2 0.0
23/05:00am 16.1 17.8 15.1 94 0.6 CALM 0 0 0 0 1021.3 1021.2 0.0
23/04:30am 15.9 17.5 14.9 94 0.6 CALM 0 0 0 0 1021.2 1021.1 0.0
23/04:00am 14.8 15.5 13.5 92 0.7 ESE 2 7 1 4 1021.0 1020.9 0.0
23/03:30am 16.0 16.3 14.9 93 0.6 W 7 9 4 5 1020.9 1020.8 0.0
23/03:00am 16.5 17.1 15.4 93 0.6 WNW 6 7 3 4 1020.9 1020.8 0.0
23/02:30am 16.6 18.4 15.6 94 0.6 CALM 0 6 0 3 1021.2 1021.1 0.0
23/02:00am 16.7 17.3 15.7 94 0.6 W 7 9 4 5 1021.2 1021.1 0.0
23/01:30am 16.5 17.2 15.5 94 0.6 NW 6 9 3 5 1021.4 1021.3 0.0
23/01:00am 15.8 17.4 14.8 94 0.6 CALM 0 0 0 0 1021.5 1021.4 0.0
23/12:30am 14.7 15.8 13.6 93 0.6 CALM 0 0 0 0 1021.8 1021.7 0.0
23/12:00am 14.7 14.5 13.6 93 0.6 SSW 7 9 4 5 1022.0 1021.9 0.0
 
Date/Time
EST
Temp
°C
App
Temp
°C
Dew
Point
°C
Rel
Hum
%
Delta-T
°C
Wind Press
QNH
hPa
Press
MSL
hPa
Rain since
9am
mm
Dir  Spd
km/h
Gust
km/h
Spd
kts
Gust
kts
22/11:30pm 15.1 15.2 14.0 93 0.6 NNW 6 7 3 4 1022.1 1022.0 0.0
22/11:00pm 15.1 15.0 14.0 93 0.6 NW 7 7 4 4 1022.3 1022.2 0.0
22/10:30pm 15.0 15.5 13.9 93 0.6 NW 4 7 2 4 1022.5 1022.4 0.0
22/10:00pm 14.7 15.7 13.1 90 0.9 CALM 0 0 0 0 1022.5 1022.4 0.0
22/09:30pm 15.7 16.3 14.2 91 0.9 SW 4 6 2 3 1022.5 1022.4 0.0
22/09:00pm 16.1 17.6 14.6 91 0.9 CALM 0 0 0 0 1022.4 1022.3 0.0
22/08:30pm 16.8 18.4 15.0 89 1.0 CALM 0 0 0 0 1022.4 1022.3 0.0
22/08:00pm 17.2 19.0 15.5 90 1.0 CALM 0 0 0 0 1022.2 1022.1 0.0
22/07:30pm 17.5 18.7 16.0 91 0.9 SE 4 6 2 3 1021.9 1021.8 0.0
22/07:00pm 17.0 17.0 15.3 90 1.0 SE 9 11 5 6 1021.5 1021.4 0.0
22/06:30pm 17.4 17.4 15.2 87 1.3 ESE 9 11 5 6 1021.2 1021.1 0.0
22/06:00pm 17.3 17.1 14.8 85 1.4 E 9 11 5 6 1020.8 1020.7 0.0
22/05:30pm 18.6 18.6 15.3 81 1.9 ESE 9 11 5 6 1020.5 1020.4 0.0
22/05:00pm 19.7 19.9 15.8 78 2.3 ESE 9 13 5 7 1020.3 1020.2 0.0
22/04:30pm 21.7 22.1 16.4 72 3.2 E 9 11 5 6 1020.2 1020.1 0.0
22/04:00pm 22.9 23.0 16.4 67 3.9 E 11 15 6 8 1020.1 1020.0 0.0
22/03:30pm 22.0 21.3 16.3 70 3.5 ESE 15 20 8 11 1020.0 1019.9 0.0
22/03:00pm 24.8 24.7 16.0 58 5.3 SE 11 15 6 8 1019.8 1019.7 0.0
22/02:30pm 24.5 25.4 16.0 59 5.2 SSE 6 9 3 5 1020.0 1019.9 0.0
22/02:00pm 24.7 25.2 15.6 57 5.5 SE 7 13 4 7 1020.2 1020.1 0.0
22/01:30pm 24.4 24.7 16.1 60 5.1 NE 9 11 5 6 1020.5 1020.4 0.0
22/01:00pm 22.5 23.4 16.1 67 3.9 S 6 7 3 4 1020.8 1020.7 0.0
22/12:30pm 23.8 25.1 16.1 62 4.7 NNE 4 9 2 5 1021.1 1021.0 0.0
22/12:00pm 23.9 24.7 16.4 63 4.6 W 7 13 4 7 1021.5 1021.4 0.0
22/11:30am 21.9 23.1 16.0 69 3.6 SSW 4 7 2 4 1022.0 1021.9 0.0
22/11:00am 21.8 22.6 16.3 71 3.3 SW 7 11 4 6 1022.4 1022.3 0.0
22/10:30am 20.5 21.4 16.1 76 2.6 SSW 6 9 3 5 1022.8 1022.7 0.0
22/10:00am 19.9 21.1 16.9 83 1.8 S 6 9 3 5 1023.2 1023.1 0.0
22/09:30am 19.3 20.3 16.9 86 1.5 SSW 7 9 4 5 1023.3 1023.2 0.0
22/09:00am 18.4 20.6 16.6 89 1.1 CALM 0 0 0 0 1023.2 1023.1 0.0
22/08:30am 18.0 19.9 16.7 92 0.8 WNW 2 6 1 3 1023.1 1023.0 0.0
22/08:00am 17.2 18.8 15.9 92 0.8 W 2 7 1 4 1022.9 1022.8 0.0
22/07:30am 17.2 18.1 16.2 94 0.6 SSW 6 6 3 3 1022.5 1022.4 0.0
22/07:00am 16.0 16.5 15.0 94 0.6 NNW 6 7 3 4 1022.0 1021.9 0.0
22/06:30am 16.5 16.6 15.5 94 0.6 NW 9 11 5 6 1021.6 1021.5 0.0
22/06:00am 16.5 17.0 15.5 94 0.6 WNW 7 9 4 5 1021.3 1021.2 0.0
22/05:30am 16.3 16.9 15.3 94 0.6 W 6 7 3 4 1021.0 1020.9 0.0
22/05:00am 16.2 17.5 15.2 94 0.6 WNW 2 6 1 3 1020.7 1020.6 0.0
22/04:30am 16.1 16.4 15.1 94 0.6 WNW 7 9 4 5 1020.6 1020.5 0.0
22/04:00am 15.8 16.0 14.8 94 0.6 WNW 7 9 4 5 1020.6 1020.5 0.0
22/03:30am 15.5 15.8 14.5 94 0.6 SW 6 7 3 4 1020.6 1020.5 0.0
22/03:00am 15.5 16.9 14.5 94 0.6 CALM 0 2 0 1 1020.7 1020.6 0.0
22/02:30am 15.6 15.9 14.6 94 0.6 W 6 7 3 4 1020.7 1020.6 0.0
22/02:00am 15.4 16.8 14.3 93 0.6 CALM 0 0 0 0 1020.5 1020.4 0.0
22/01:30am 15.7 16.5 14.7 94 0.6 NW 4 9 2 5 1020.9 1020.8 0.0
22/01:00am 16.0 16.5 15.0 94 0.6 N 6 11 3 6 1020.8 1020.7 0.0
22/12:30am 15.3 16.6 14.2 93 0.6 CALM 0 0 0 0 1021.0 1020.9 0.0
22/12:00am 15.4 15.7 14.4 94 0.6 S 6 9 3 5 1020.9 1020.8 0.0
 
Date/Time
EST
Temp
°C
App
Temp
°C
Dew
Point
°C
Rel
Hum
%
Delta-T
°C
Wind Press
QNH
hPa
Press
MSL
hPa
Rain since
9am
mm
Dir  Spd
km/h
Gust
km/h
Spd
kts
Gust
kts
21/11:30pm 15.9 16.2 14.9 94 0.6 NW 7 7 4 4 1021.0 1020.9 0.0
21/11:00pm 14.7 15.5 13.6 93 0.6 W 2 7 1 4 1021.2 1021.1 0.0
21/10:30pm 14.1 14.9 12.7 91 0.8 CALM 0 0 0 0 1020.9 1020.8 0.0
21/10:00pm 14.5 15.4 13.0 91 0.8 CALM 0 0 0 0 1020.8 1020.7 0.0
21/09:30pm 15.2 16.4 13.9 92 0.7 CALM 0 0 0 0 1020.9 1020.8 0.0
21/09:00pm 15.5 15.6 14.0 91 0.8 S 6 6 3 3 1021.0 1020.9 0.0
21/08:30pm 16.0 16.3 14.5 91 0.9 SE 6 9 3 5 1020.6 1020.5 0.0
21/08:00pm 16.4 16.9 14.9 91 0.9 SE 6 9 3 5 1020.6 1020.5 0.0
21/07:30pm 16.8 17.3 15.0 89 1.0 SE 6 7 3 4 1020.4 1020.3 0.0
21/07:00pm 17.2 17.6 15.2 88 1.2 SE 7 9 4 5 1020.2 1020.1 0.0
21/06:30pm 17.7 18.1 15.3 86 1.4 SE 7 9 4 5 1019.9 1019.8 0.0
21/06:00pm 18.0 18.1 15.4 85 1.5 SE 9 11 5 6 1019.2 1019.1 0.0
21/05:30pm 18.9 20.9 16.1 84 1.7 CALM 0 0 0 0 1018.7 1018.6 0.0
21/05:00pm 20.1 21.8 16.1 78 2.4 SSE 2 6 1 3 1018.4 1018.3 0.0
21/04:30pm 22.6 23.6 16.4 68 3.8 SE 6 7 3 4 1018.2 1018.1 0.0
21/04:00pm 22.1 23.8 16.1 69 3.6 SE 2 7 1 4 1017.9 1017.8 0.0
21/03:30pm 24.7 24.6 15.9 58 5.4 E 11 13 6 7 1017.8 1017.7 0.0
21/03:00pm 24.5 26.4 16.7 61 4.8 SSW 2 7 1 4 1017.8 1017.7 0.0
21/02:30pm 24.9 25.3 16.3 59 5.3 ESE 9 11 5 6 1017.8 1017.7 0.0
21/02:00pm 24.7 25.6 16.2 59 5.2 S 6 9 3 5 1017.8 1017.7 0.0
21/01:30pm 24.7 25.4 16.2 59 5.2 ENE 7 11 4 6 1017.8 1017.7 0.0
21/01:00pm 24.0 24.9 16.0 61 4.9 S 6 9 3 5 1018.1 1018.0 0.0
21/12:30pm 23.4 24.1 16.0 63 4.5 S 7 9 4 5 1018.7 1018.6 0.0
21/12:00pm 23.9 25.4 16.7 64 4.4 ENE 4 9 2 5 1019.0 1018.9 0.0
21/11:30am 22.5 23.3 15.8 66 4.0 NE 6 9 3 5 1019.4 1019.3 0.0
21/11:00am 21.5 22.4 16.2 72 3.2 SW 6 9 3 5 1019.8 1019.7 0.0
21/10:30am 21.2 23.1 16.6 75 2.8 WSW 2 9 1 5 1020.1 1020.0 0.0

Other Formats:

Comma delimited format used in spreadsheet applications
http://www.bom.gov.au/fwo/IDN60801/IDN60801.94573.axf

JavaScript Object Notation format (JSON) in row-major order
http://www.bom.gov.au/fwo/IDN60801/IDN60801.94573.json